PWSweather.com
Personal Weather Stations
Station Observations
KFLWINTE111
Tuscawilla, Winter Springs, FL 32708

TuscawillaWinter Springs, FL 32708

Lat: 28.677427, Lon: -81.241215

Elevation: 30

Station Type: Ambient Weather WS-2902A

Latest ConditionsUpdated 3:17:15 AM EST Thursday, Dec 12, 2019
Currently Today's Max Today's Min Today's Average
Temperature 67.6°F19.8°C 67.8°F19.9°C 65.3°F18.5°C 67.1°F19.5°C
Dew Point 65.5°F18.6°C 65.5°F18.6°C 63.9°F17.7°C 64.9°F18.3°C
Winds Calm Calm 1.8 mph -2.9 kmh - - 0.4 mph 0.6 kmh
Wind Gusts 1.1 mph1.8 kmh 6.9 mph11.1 kmh - -
Humidity 93% 95% 91% 93%
Pressure 30.26 in1024.7 mb 30.29 in1025.7 mb 30.26 in1024.7 mb -
Hour Temp Dew Point Humidity Winds Wind Gusts Pressure Precip Precip Rate Daily Precip Total
03:17 AM 67.6°F19.8°C 65.5°F18.6°C 93% Calm Calm 1.1 mph1.8 kmh 30.26 in1024.7 mb 0.00 in0.0 mm 0.00 in0.0 mm 0.00 in0.0 mm
03:12 AM 67.6°F19.8°C 65.3°F18.5°C 92% 0.7 mph NE1.1 kmh NE 4.5 mph7.2 kmh 30.26 in1024.7 mb 0.00 in0.0 mm 0.00 in0.0 mm 0.00 in0.0 mm
03:07 AM 67.6°F19.8°C 65.3°F18.5°C 92% 0.7 mph NW1.1 kmh NW 4.5 mph7.2 kmh 30.26 in1024.7 mb 0.00 in0.0 mm 0.00 in0.0 mm 0.00 in0.0 mm
03:02 AM 67.6°F19.8°C 65.3°F18.5°C 92% 1.1 mph N1.8 kmh N 3.4 mph5.5 kmh 30.26 in1024.7 mb 0.00 in0.0 mm 0.00 in0.0 mm 0.00 in0.0 mm
02:56 AM 67.5°F19.7°C 65.1°F18.4°C 92% Calm Calm 2.2 mph3.5 kmh 30.26 in1024.7 mb 0.00 in0.0 mm 0.00 in0.0 mm 0.00 in0.0 mm
02:51 AM 67.5°F19.7°C 65.1°F18.4°C 92% 1.1 mph NE1.8 kmh NE 2.2 mph3.5 kmh 30.26 in1024.7 mb 0.00 in0.0 mm 0.00 in0.0 mm 0.00 in0.0 mm
02:46 AM 67.6°F19.8°C 65.3°F18.5°C 92% Calm Calm 2.2 mph3.5 kmh 30.26 in1024.7 mb 0.00 in0.0 mm 0.00 in0.0 mm 0.00 in0.0 mm
02:41 AM 67.8°F19.9°C 65.1°F18.4°C 91% Calm Calm 3.4 mph5.5 kmh 30.27 in1025.1 mb 0.00 in0.0 mm 0.00 in0.0 mm 0.00 in0.0 mm
02:36 AM 67.8°F19.9°C 65.1°F18.4°C 91% 0.7 mph N1.1 kmh N 3.4 mph5.5 kmh 30.27 in1025.1 mb 0.00 in0.0 mm 0.00 in0.0 mm 0.00 in0.0 mm
02:31 AM 67.8°F19.9°C 65.1°F18.4°C 91% 0.7 mph E1.1 kmh E 2.2 mph3.5 kmh 30.27 in1025.1 mb 0.00 in0.0 mm 0.00 in0.0 mm 0.00 in0.0 mm
02:26 AM 67.8°F19.9°C 65.1°F18.4°C 91% 0.9 mph NE1.4 kmh NE 3.4 mph5.5 kmh 30.27 in1025.1 mb 0.00 in0.0 mm 0.00 in0.0 mm 0.00 in0.0 mm
02:21 AM 67.8°F19.9°C 65.1°F18.4°C 91% 0.2 mph W0.3 kmh W 3.4 mph5.5 kmh 30.27 in1025.1 mb 0.00 in0.0 mm 0.00 in0.0 mm 0.00 in0.0 mm
02:16 AM 67.8°F19.9°C 65.1°F18.4°C 91% 1.1 mph NNE1.8 kmh NNE 3.4 mph5.5 kmh 30.27 in1025.1 mb 0.00 in0.0 mm 0.00 in0.0 mm 0.00 in0.0 mm
02:11 AM 67.8°F19.9°C 65.1°F18.4°C 91% 0.4 mph NNW0.6 kmh NNW 2.2 mph3.5 kmh 30.27 in1025.1 mb 0.00 in0.0 mm 0.00 in0.0 mm 0.00 in0.0 mm
02:06 AM 67.8°F19.9°C 65.1°F18.4°C 91% Calm Calm 5.8 mph9.3 kmh 30.28 in1025.4 mb 0.00 in0.0 mm 0.00 in0.0 mm 0.00 in0.0 mm
02:01 AM 67.8°F19.9°C 65.1°F18.4°C 91% 0.9 mph NE1.4 kmh NE 4.5 mph7.2 kmh 30.27 in1025.1 mb 0.00 in0.0 mm 0.00 in0.0 mm 0.00 in0.0 mm
01:56 AM 67.8°F19.9°C 65.1°F18.4°C 91% 0.9 mph NE1.4 kmh NE 3.4 mph5.5 kmh 30.28 in1025.4 mb 0.00 in0.0 mm 0.00 in0.0 mm 0.00 in0.0 mm
01:51 AM 67.6°F19.8°C 64.9°F18.3°C 91% 0.7 mph NE1.1 kmh NE 2.2 mph3.5 kmh 30.28 in1025.4 mb 0.00 in0.0 mm 0.00 in0.0 mm 0.00 in0.0 mm
01:46 AM 67.6°F19.8°C 64.9°F18.3°C 91% 0.4 mph N0.6 kmh N 2.2 mph3.5 kmh 30.28 in1025.4 mb 0.00 in0.0 mm 0.00 in0.0 mm 0.00 in0.0 mm
01:41 AM 67.6°F19.8°C 64.9°F18.3°C 91% Calm Calm 3.4 mph5.5 kmh 30.28 in1025.4 mb 0.00 in0.0 mm 0.00 in0.0 mm 0.00 in0.0 mm
01:36 AM 67.6°F19.8°C 64.9°F18.3°C 91% 0.2 mph NE0.3 kmh NE 3.4 mph5.5 kmh 30.28 in1025.4 mb 0.00 in0.0 mm 0.00 in0.0 mm 0.00 in0.0 mm
01:31 AM 67.6°F19.8°C 64.9°F18.3°C 91% Calm Calm 2.2 mph3.5 kmh 30.29 in1025.7 mb 0.00 in0.0 mm 0.00 in0.0 mm 0.00 in0.0 mm
01:26 AM 67.6°F19.8°C 65.3°F18.5°C 92% Calm Calm 6.9 mph11.1 kmh 30.28 in1025.4 mb 0.00 in0.0 mm 0.00 in0.0 mm 0.00 in0.0 mm
01:21 AM 67.5°F19.7°C 65.1°F18.4°C 92% 1.3 mph NE2.1 kmh NE 3.4 mph5.5 kmh 30.28 in1025.4 mb 0.00 in0.0 mm 0.00 in0.0 mm 0.00 in0.0 mm
01:16 AM 67.5°F19.7°C 65.1°F18.4°C 92% Calm Calm 3.4 mph5.5 kmh 30.29 in1025.7 mb 0.00 in0.0 mm 0.00 in0.0 mm 0.00 in0.0 mm
01:10 AM 67.3°F19.6°C 64.9°F18.3°C 92% 0.2 mph WSW0.3 kmh WSW 3.4 mph5.5 kmh 30.29 in1025.7 mb 0.00 in0.0 mm 0.00 in0.0 mm 0.00 in0.0 mm
01:05 AM 67.1°F19.5°C 64.9°F18.3°C 93% 0.2 mph NW0.3 kmh NW 2.2 mph3.5 kmh 30.29 in1025.7 mb 0.00 in0.0 mm 0.00 in0.0 mm 0.00 in0.0 mm
01:00 AM 67.1°F19.5°C 64.9°F18.3°C 93% Calm Calm 4.5 mph7.2 kmh 30.28 in1025.4 mb 0.00 in0.0 mm 0.00 in0.0 mm 0.00 in0.0 mm
12:55 AM 66.7°F19.3°C 64.9°F18.3°C 94% 1.8 mph N2.9 kmh N 3.4 mph5.5 kmh 30.28 in1025.4 mb 0.00 in0.0 mm 0.00 in0.0 mm 0.00 in0.0 mm
12:50 AM 66.6°F19.2°C 64.8°F18.2°C 94% 0.2 mph ENE0.3 kmh ENE 2.2 mph3.5 kmh 30.28 in1025.4 mb 0.00 in0.0 mm 0.00 in0.0 mm 0.00 in0.0 mm
12:45 AM 66.4°F19.1°C 64.6°F18.1°C 94% Calm Calm 2.2 mph3.5 kmh 30.28 in1025.4 mb 0.00 in0.0 mm 0.00 in0.0 mm 0.00 in0.0 mm
12:40 AM 66.2°F19.0°C 64.8°F18.2°C 95% Calm Calm 1.1 mph1.8 kmh 30.28 in1025.4 mb 0.00 in0.0 mm 0.00 in0.0 mm 0.00 in0.0 mm
12:35 AM 66.2°F19.0°C 64.8°F18.2°C 95% 0.2 mph W0.3 kmh W 5.8 mph9.3 kmh 30.29 in1025.7 mb 0.00 in0.0 mm 0.00 in0.0 mm 0.00 in0.0 mm
12:30 AM 66.0°F18.9°C 64.6°F18.1°C 95% 1.3 mph NNE2.1 kmh NNE 2.2 mph3.5 kmh 30.29 in1025.7 mb 0.00 in0.0 mm 0.00 in0.0 mm 0.00 in0.0 mm
12:25 AM 65.8°F18.8°C 64.4°F18.0°C 95% 0.2 mph WNW0.3 kmh WNW 2.2 mph3.5 kmh 30.28 in1025.4 mb 0.00 in0.0 mm 0.00 in0.0 mm 0.00 in0.0 mm
12:20 AM 65.8°F18.8°C 64.4°F18.0°C 95% 0.2 mph NW0.3 kmh NW 2.2 mph3.5 kmh 30.28 in1025.4 mb 0.00 in0.0 mm 0.00 in0.0 mm 0.00 in0.0 mm
12:15 AM 65.7°F18.7°C 64.2°F17.9°C 95% 0.2 mph N0.3 kmh N 2.2 mph3.5 kmh 30.28 in1025.4 mb 0.00 in0.0 mm 0.00 in0.0 mm 0.00 in0.0 mm
12:10 AM 65.7°F18.7°C 64.2°F17.9°C 95% Calm Calm 2.2 mph3.5 kmh 30.29 in1025.7 mb 0.00 in0.0 mm 0.00 in0.0 mm 0.00 in0.0 mm
12:05 AM 65.5°F18.6°C 64.0°F17.8°C 95% 0.2 mph NE0.3 kmh NE 3.4 mph5.5 kmh 30.29 in1025.7 mb 0.00 in0.0 mm 0.00 in0.0 mm 0.00 in0.0 mm
12:00 AM 65.3°F18.5°C 63.9°F17.7°C 95% 1.1 mph N1.8 kmh N 2.2 mph3.5 kmh 30.29 in1025.7 mb 0.00 in0.0 mm 0.00 in0.0 mm 0.00 in0.0 mm